Lee's Summit, MO

2:39 AM CST on November 24, 2014 (GMT -0600)
Kansas City Downtown | Change Station
CLOSE
Current Station
Airport
Location: Kansas City,
Elevation: 758 ft
Nearby Weather Stations

Elev 758 ft 39.12 °N, 94.60 °W | Updated 45 minutes ago

Overcast
Overcast
40 °F
Feels Like 31 °F
N
16
Wind Variable Wind from NW
Gusts 28 mph

Today
High -- | Low -- °F
--% Chance of Precip.
Yesterday
High -- | Low -- °F
Precip. -- in
7:10 AM 4:58 PM
Waxing Crescent, 4% visible
Pressure 29.53 in
Visibility 10.0 miles
Clouds Overcast 3800 ft
Windchill 31 °F
Dew Point 28 °F
Humidity 63%
Rainfall 0.00 in
Snow Depth Not available.
UV 0 out of 12
Pollen .10 out of 12
Air Quality Not available.
Flu Activity Not available.
METAR KMKC 240754Z 32014G24KT 10SM -RA OVC038 04/M02 A2953 RMK AO2 PK WND 31029/0716 RAB16E28B48 SLP000 P0000 T00441022

More Conditions Fewer Conditions

Pressure 29.53 in
Visibility 10.0 miles
Clouds Overcast 3800 ft
Windchill 31 °F
Dew Point 28 °F
Humidity 63%
Rainfall 0.00 in
Snow Depth Not available.
UV 0 out of 12
Pollen .10 out of 12
Air Quality Not available.
Flu Activity Not available.
METAR KMKC 240754Z 32014G24KT 10SM -RA OVC038 04/M02 A2953 RMK AO2 PK WND 31029/0716 RAB16E28B48 SLP000 P0000 T00441022

More Conditions Fewer Conditions

10-Day Weather Forecast

Almanac

Astronomy

Nov. 24, 2014 Rise Set
Actual Time
Civil Twilight
Nautical Twilight
Astronomical Twilight
Moon
Length of Visible Light
Length of Day
Tomorrow will be .
, % of the Moon is Illuminated

Today's Extremes

State Highs State Lows

Community

WunderPhotos

Upload Photos

1,773,295 photos uploaded!

WunderBlogs® & News

Nearby

Air Quality

  Air Quality AQ Index Pollutant
Not available.

Snow Depth

Station Depth Elevation

Earthquake Activity

City Distance Mag. Time & Date
Minimum magnitude displayed is 2.5.

Coastal Water Temperatures

Place Temperature

Nearby Weather Stations